Walnut, Illinois
Current Conditions -  °F | °C
As of 9:55 AM on Saturday 22 Nov 2014 (Local Time) from KSQI Reporting Station
Overcast Overcast  
Wind Chill: 40°   Ceiling: 1100
Heat Index: 43°   Visibility: 1.7mi
Dew Point: 39°   Wind: 5mph
Humidity: 87%   Direction: 200°SSW
Pressure: 29.94"   Gusts: NA
Location:  41.56°N, 89.59°W
Report Text: KSQI 221555Z 20004KT 1 3/4SM OVC011 06/04 A2994 RMK AO1
Loading
Personal Weather Stations






























Interactive Weather Map New forecast layout! Learn more

10-Day Weather Forecast

Advertisements
Track Severe Weather on mobile